sensor_id;sensor_type;location;lat;lon;timestamp;pressure;altitude;pressure_sealevel;temperature;humidity
74594;BME280;63097;51.872;4.460;2023-04-24T00:00:20;100141.09;;;9.19;100.00
74594;BME280;63097;51.872;4.460;2023-04-24T00:02:45;100133.53;;;9.14;100.00
74594;BME280;63097;51.872;4.460;2023-04-24T00:05:10;100128.53;;;9.11;100.00
74594;BME280;63097;51.872;4.460;2023-04-24T00:07:36;100138.00;;;9.15;100.00
74594;BME280;63097;51.872;4.460;2023-04-24T00:10:01;100137.38;;;9.08;100.00
74594;BME280;63097;51.872;4.460;2023-04-24T00:12:26;100145.69;;;9.08;100.00
74594;BME280;63097;51.872;4.460;2023-04-24T00:14:52;100136.47;;;9.02;100.00
74594;BME280;63097;51.872;4.460;2023-04-24T00:17:17;100142.25;;;9.23;100.00
74594;BME280;63097;51.872;4.460;2023-04-24T00:19:43;100135.53;;;9.19;100.00
74594;BME280;63097;51.872;4.460;2023-04-24T00:22:08;100132.13;;;9.11;100.00
74594;BME280;63097;51.872;4.460;2023-04-24T00:24:33;100143.16;;;9.28;100.00
74594;BME280;63097;51.872;4.460;2023-04-24T00:26:59;100139.66;;;9.16;100.00
74594;BME280;63097;51.872;4.460;2023-04-24T00:29:24;100139.66;;;9.16;100.00
74594;BME280;63097;51.872;4.460;2023-04-24T00:31:49;100144.31;;;9.10;100.00
74594;BME280;63097;51.872;4.460;2023-04-24T00:34:15;100135.50;;;9.13;100.00
74594;BME280;63097;51.872;4.460;2023-04-24T00:36:40;100137.78;;;9.22;100.00
74594;BME280;63097;51.872;4.460;2023-04-24T00:39:05;100131.72;;;9.25;100.00
74594;BME280;63097;51.872;4.460;2023-04-24T00:41:31;100137.91;;;9.32;100.00
74594;BME280;63097;51.872;4.460;2023-04-24T00:43:56;100140.06;;;9.25;100.00
74594;BME280;63097;51.872;4.460;2023-04-24T00:46:22;100143.34;;;9.22;100.00
74594;BME280;63097;51.872;4.460;2023-04-24T00:48:47;100137.53;;;9.23;100.00
74594;BME280;63097;51.872;4.460;2023-04-24T00:51:13;100134.13;;;9.16;100.00
74594;BME280;63097;51.872;4.460;2023-04-24T00:53:38;100140.78;;;9.15;100.00
74594;BME280;63097;51.872;4.460;2023-04-24T00:56:04;100141.69;;;9.21;100.00
74594;BME280;63097;51.872;4.460;2023-04-24T00:58:30;100135.84;;;9.22;99.84
74594;BME280;63097;51.872;4.460;2023-04-24T01:00:56;100144.63;;;9.14;100.00
74594;BME280;63097;51.872;4.460;2023-04-24T01:03:22;100144.41;;;9.16;100.00
74594;BME280;63097;51.872;4.460;2023-04-24T01:05:49;100136.31;;;9.14;100.00
74594;BME280;63097;51.872;4.460;2023-04-24T01:08:15;100135.50;;;9.13;100.00
74594;BME280;63097;51.872;4.460;2023-04-24T01:10:41;100135.50;;;9.13;100.00
74594;BME280;63097;51.872;4.460;2023-04-24T01:13:08;100137.44;;;9.13;100.00
74594;BME280;63097;51.872;4.460;2023-04-24T01:15:34;100136.31;;;9.14;100.00
74594;BME280;63097;51.872;4.460;2023-04-24T01:17:59;100128.53;;;9.11;100.00
74594;BME280;63097;51.872;4.460;2023-04-24T01:20:25;100127.25;;;9.24;99.43
74594;BME280;63097;51.872;4.460;2023-04-24T01:22:50;100139.16;;;9.19;99.87
74594;BME280;63097;51.872;4.460;2023-04-24T01:25:16;100137.78;;;9.22;99.46
74594;BME280;63097;51.872;4.460;2023-04-24T01:27:41;100137.13;;;9.09;99.96
74594;BME280;63097;51.872;4.460;2023-04-24T01:30:07;100146.91;;;9.17;100.00
74594;BME280;63097;51.872;4.460;2023-04-24T01:32:33;100141.03;;;9.13;100.00
74594;BME280;63097;51.872;4.460;2023-04-24T01:34:59;100134.97;;;9.17;99.86
74594;BME280;63097;51.872;4.460;2023-04-24T01:37:24;100137.03;;;9.26;99.26
74594;BME280;63097;51.872;4.460;2023-04-24T01:39:49;100137.44;;;9.13;99.84
74594;BME280;63097;51.872;4.460;2023-04-24T01:42:16;100136.06;;;9.16;100.00
74594;BME280;63097;51.872;4.460;2023-04-24T01:44:41;100138.91;;;9.21;99.94
74594;BME280;63097;51.872;4.460;2023-04-24T01:47:07;100138.38;;;9.24;99.63
74594;BME280;63097;51.872;4.460;2023-04-24T01:49:32;100135.72;;;9.12;100.00
74594;BME280;63097;51.872;4.460;2023-04-24T01:51:58;100133.50;;;9.09;100.00
74594;BME280;63097;51.872;4.460;2023-04-24T01:54:23;100123.50;;;9.08;100.00
74594;BME280;63097;51.872;4.460;2023-04-24T01:56:48;100124.72;;;9.17;100.00
74594;BME280;63097;51.872;4.460;2023-04-24T01:59:15;100132.78;;;9.19;100.00
74594;BME280;63097;51.872;4.460;2023-04-24T02:01:42;100123.75;;;9.06;100.00
74594;BME280;63097;51.872;4.460;2023-04-24T02:04:07;100119.34;;;9.10;100.00
74594;BME280;63097;51.872;4.460;2023-04-24T02:06:33;100128.56;;;9.16;100.00
74594;BME280;63097;51.872;4.460;2023-04-24T02:08:58;100121.97;;;9.22;100.00
74594;BME280;63097;51.872;4.460;2023-04-24T02:11:24;100118.06;;;9.18;100.00
74594;BME280;63097;51.872;4.460;2023-04-24T02:13:49;100120.56;;;9.20;100.00
74594;BME280;63097;51.872;4.460;2023-04-24T02:16:15;100118.38;;;9.22;100.00
74594;BME280;63097;51.872;4.460;2023-04-24T02:18:40;100113.38;;;9.24;100.00
74594;BME280;63097;51.872;4.460;2023-04-24T02:21:05;100113.81;;;9.10;100.00
74594;BME280;63097;51.872;4.460;2023-04-24T02:23:30;100112.09;;;9.04;100.00
74594;BME280;63097;51.872;4.460;2023-04-24T02:25:56;100124.09;;;9.10;100.00
74594;BME280;63097;51.872;4.460;2023-04-24T02:28:21;100122.75;;;9.18;100.00
74594;BME280;63097;51.872;4.460;2023-04-24T02:30:46;100129.09;;;9.13;100.00
74594;BME280;63097;51.872;4.460;2023-04-24T02:33:12;100124.91;;;9.10;100.00
74594;BME280;63097;51.872;4.460;2023-04-24T02:35:37;100134.44;;;9.20;100.00
74594;BME280;63097;51.872;4.460;2023-04-24T02:38:03;100120.81;;;9.18;100.00
74594;BME280;63097;51.872;4.460;2023-04-24T02:40:29;100126.00;;;9.09;100.00
74594;BME280;63097;51.872;4.460;2023-04-24T02:42:54;100138.50;;;9.12;100.00
74594;BME280;63097;51.872;4.460;2023-04-24T02:45:20;100133.81;;;9.12;100.00
74594;BME280;63097;51.872;4.460;2023-04-24T02:47:45;100136.47;;;9.02;100.00
74594;BME280;63097;51.872;4.460;2023-04-24T02:50:10;100128.97;;;9.03;100.00
74594;BME280;63097;51.872;4.460;2023-04-24T02:52:36;100131.81;;;9.08;100.00
74594;BME280;63097;51.872;4.460;2023-04-24T02:55:01;100137.28;;;9.03;100.00
74594;BME280;63097;51.872;4.460;2023-04-24T02:57:26;100141.19;;;9.02;99.75
74594;BME280;63097;51.872;4.460;2023-04-24T02:59:52;100140.88;;;8.98;99.51
74594;BME280;63097;51.872;4.460;2023-04-24T03:02:17;100143.63;;;8.98;99.73
74594;BME280;63097;51.872;4.460;2023-04-24T03:04:42;100136.88;;;8.89;100.00
74594;BME280;63097;51.872;4.460;2023-04-24T03:07:08;100135.25;;;8.93;100.00
74594;BME280;63097;51.872;4.460;2023-04-24T03:09:33;100137.47;;;8.91;99.97
74594;BME280;63097;51.872;4.460;2023-04-24T03:11:59;100142.16;;;8.91;99.76
74594;BME280;63097;51.872;4.460;2023-04-24T03:14:24;100142.91;;;8.86;100.00
74594;BME280;63097;51.872;4.460;2023-04-24T03:16:49;100146.28;;;8.88;99.50
74594;BME280;63097;51.872;4.460;2023-04-24T03:19:14;100153.09;;;8.81;100.00
74594;BME280;63097;51.872;4.460;2023-04-24T03:21:40;100148.94;;;8.78;100.00
74594;BME280;63097;51.872;4.460;2023-04-24T03:24:06;100137.59;;;8.80;99.49
74594;BME280;63097;51.872;4.460;2023-04-24T03:26:32;100146.16;;;8.78;99.07
74594;BME280;63097;51.872;4.460;2023-04-24T03:28:57;100134.81;;;8.80;99.59
74594;BME280;63097;51.872;4.460;2023-04-24T03:31:22;100118.63;;;8.72;98.92
74594;BME280;63097;51.872;4.460;2023-04-24T03:33:47;100112.63;;;8.80;98.32
74594;BME280;63097;51.872;4.460;2023-04-24T03:36:13;100110.88;;;8.74;98.94
74594;BME280;63097;51.872;4.460;2023-04-24T03:38:38;100112.56;;;8.75;99.61
74594;BME280;63097;51.872;4.460;2023-04-24T03:41:03;100118.88;;;8.70;100.00
74594;BME280;63097;51.872;4.460;2023-04-24T03:43:29;100131.44;;;8.78;100.00
74594;BME280;63097;51.872;4.460;2023-04-24T03:45:54;100128.72;;;8.83;100.00
74594;BME280;63097;51.872;4.460;2023-04-24T03:48:19;100127.44;;;8.90;100.00
74594;BME280;63097;51.872;4.460;2023-04-24T03:50:45;100137.50;;;8.96;100.00
74594;BME280;63097;51.872;4.460;2023-04-24T03:53:10;100138.09;;;8.98;100.00
74594;BME280;63097;51.872;4.460;2023-04-24T03:55:35;100147.56;;;9.02;100.00
74594;BME280;63097;51.872;4.460;2023-04-24T03:58:01;100146.16;;;9.00;100.00
74594;BME280;63097;51.872;4.460;2023-04-24T04:00:26;100146.47;;;9.03;100.00
74594;BME280;63097;51.872;4.460;2023-04-24T04:02:51;100147.00;;;9.00;100.00
74594;BME280;63097;51.872;4.460;2023-04-24T04:05:16;100155.91;;;9.02;100.00
74594;BME280;63097;51.872;4.460;2023-04-24T04:07:42;100159.00;;;9.06;100.00
74594;BME280;63097;51.872;4.460;2023-04-24T04:10:07;100155.94;;;9.07;100.00
74594;BME280;63097;51.872;4.460;2023-04-24T04:12:33;100156.66;;;8.98;100.00
74594;BME280;63097;51.872;4.460;2023-04-24T04:14:58;100167.03;;;9.07;100.00
74594;BME280;63097;51.872;4.460;2023-04-24T04:17:23;100162.53;;;9.01;100.00
74594;BME280;63097;51.872;4.460;2023-04-24T04:19:49;100177.31;;;9.07;100.00
74594;BME280;63097;51.872;4.460;2023-04-24T04:22:14;100175.69;;;9.11;100.00
74594;BME280;63097;51.872;4.460;2023-04-24T04:24:39;100176.41;;;9.01;100.00
74594;BME280;63097;51.872;4.460;2023-04-24T04:27:05;100189.91;;;8.93;100.00
74594;BME280;63097;51.872;4.460;2023-04-24T04:29:30;100196.84;;;8.95;100.00
74594;BME280;63097;51.872;4.460;2023-04-24T04:31:56;100217.81;;;8.86;100.00
74594;BME280;63097;51.872;4.460;2023-04-24T04:34:21;100219.66;;;8.81;100.00
74594;BME280;63097;51.872;4.460;2023-04-24T04:36:46;100214.59;;;8.73;100.00
74594;BME280;63097;51.872;4.460;2023-04-24T04:39:12;100235.06;;;8.72;100.00
74594;BME280;63097;51.872;4.460;2023-04-24T04:41:37;100235.59;;;8.69;100.00
74594;BME280;63097;51.872;4.460;2023-04-24T04:44:02;100251.06;;;8.65;100.00
74594;BME280;63097;51.872;4.460;2023-04-24T04:46:28;100257.63;;;8.59;100.00
74594;BME280;63097;51.872;4.460;2023-04-24T04:48:53;100260.03;;;8.55;100.00
74594;BME280;63097;51.872;4.460;2023-04-24T04:51:18;100271.66;;;8.52;100.00
74594;BME280;63097;51.872;4.460;2023-04-24T04:53:44;100276.53;;;8.45;99.75
74594;BME280;63097;51.872;4.460;2023-04-24T04:56:09;100281.66;;;8.37;99.15
74594;BME280;63097;51.872;4.460;2023-04-24T04:58:34;100289.66;;;8.33;98.96
74594;BME280;63097;51.872;4.460;2023-04-24T05:01:00;100301.13;;;8.25;99.62
74594;BME280;63097;51.872;4.460;2023-04-24T05:03:25;100299.81;;;8.28;99.82
74594;BME280;63097;51.872;4.460;2023-04-24T05:05:50;100291.50;;;8.28;100.00
74594;BME280;63097;51.872;4.460;2023-04-24T05:08:16;100315.00;;;8.25;100.00
74594;BME280;63097;51.872;4.460;2023-04-24T05:10:41;100317.38;;;8.22;100.00
74594;BME280;63097;51.872;4.460;2023-04-24T05:13:06;100327.16;;;8.24;100.00
74594;BME280;63097;51.872;4.460;2023-04-24T05:15:31;100329.81;;;8.19;100.00
74594;BME280;63097;51.872;4.460;2023-04-24T05:17:57;100335.09;;;8.21;100.00
74594;BME280;63097;51.872;4.460;2023-04-24T05:20:22;100349.78;;;8.21;100.00
74594;BME280;63097;51.872;4.460;2023-04-24T05:22:47;100363.22;;;8.12;99.49
74594;BME280;63097;51.872;4.460;2023-04-24T05:25:13;100349.63;;;8.11;99.03
74594;BME280;63097;51.872;4.460;2023-04-24T05:27:38;100378.31;;;8.05;98.55
74594;BME280;63097;51.872;4.460;2023-04-24T05:30:04;100383.34;;;8.08;98.35
74594;BME280;63097;51.872;4.460;2023-04-24T05:32:29;100395.53;;;8.07;98.43
74594;BME280;63097;51.872;4.460;2023-04-24T05:34:55;100394.06;;;8.04;98.56
74594;BME280;63097;51.872;4.460;2023-04-24T05:37:20;100402.97;;;8.06;98.78
74594;BME280;63097;51.872;4.460;2023-04-24T05:39:46;100407.44;;;8.07;98.94
74594;BME280;63097;51.872;4.460;2023-04-24T05:42:11;100408.00;;;8.09;99.08
74594;BME280;63097;51.872;4.460;2023-04-24T05:44:36;100422.59;;;8.17;99.52
74594;BME280;63097;51.872;4.460;2023-04-24T05:47:02;100424.84;;;8.20;98.74
74594;BME280;63097;51.872;4.460;2023-04-24T05:49:28;100431.47;;;8.18;99.26
74594;BME280;63097;51.872;4.460;2023-04-24T05:51:53;100440.53;;;8.26;99.50
74594;BME280;63097;51.872;4.460;2023-04-24T05:54:18;100450.13;;;8.23;99.04
74594;BME280;63097;51.872;4.460;2023-04-24T05:56:44;100453.88;;;8.29;98.83
74594;BME280;63097;51.872;4.460;2023-04-24T05:59:09;100451.22;;;8.22;98.88
74594;BME280;63097;51.872;4.460;2023-04-24T06:01:34;100457.75;;;8.28;98.98
74594;BME280;63097;51.872;4.460;2023-04-24T06:04:00;100465.69;;;8.24;99.15
74594;BME280;63097;51.872;4.460;2023-04-24T06:06:25;100469.06;;;8.26;98.36
74594;BME280;63097;51.872;4.460;2023-04-24T06:08:51;100488.22;;;8.28;98.13
74594;BME280;63097;51.872;4.460;2023-04-24T06:11:16;100499.16;;;8.23;98.23
74594;BME280;63097;51.872;4.460;2023-04-24T06:13:41;100507.72;;;8.21;97.56
74594;BME280;63097;51.872;4.460;2023-04-24T06:16:07;100511.09;;;8.11;98.32
74594;BME280;63097;51.872;4.460;2023-04-24T06:18:32;100532.91;;;8.20;97.17
74594;BME280;63097;51.872;4.460;2023-04-24T06:20:57;100513.00;;;8.23;96.52
74594;BME280;63097;51.872;4.460;2023-04-24T06:23:23;100528.44;;;8.18;97.31
74594;BME280;63097;51.872;4.460;2023-04-24T06:25:48;100534.34;;;8.22;95.94
74594;BME280;63097;51.872;4.460;2023-04-24T06:28:13;100534.56;;;8.21;95.98
74594;BME280;63097;51.872;4.460;2023-04-24T06:30:39;100553.50;;;8.24;96.61
74594;BME280;63097;51.872;4.460;2023-04-24T06:33:04;100549.88;;;8.23;96.67
74594;BME280;63097;51.872;4.460;2023-04-24T06:35:29;100556.72;;;8.21;97.11
74594;BME280;63097;51.872;4.460;2023-04-24T06:37:55;100564.47;;;8.30;95.62
74594;BME280;63097;51.872;4.460;2023-04-24T06:40:20;100568.00;;;8.26;96.55
74594;BME280;63097;51.872;4.460;2023-04-24T06:42:45;100572.88;;;8.35;95.59
74594;BME280;63097;51.872;4.460;2023-04-24T06:45:11;100564.22;;;8.32;96.58
74594;BME280;63097;51.872;4.460;2023-04-24T06:47:36;100580.97;;;8.37;95.57
74594;BME280;63097;51.872;4.460;2023-04-24T06:50:01;100594.06;;;8.41;95.99
74594;BME280;63097;51.872;4.460;2023-04-24T06:52:27;100598.75;;;8.52;94.81
74594;BME280;63097;51.872;4.460;2023-04-24T06:54:52;100602.72;;;8.56;94.59
74594;BME280;63097;51.872;4.460;2023-04-24T06:57:18;100604.00;;;8.65;92.57
74594;BME280;63097;51.872;4.460;2023-04-24T06:59:43;100594.59;;;8.66;92.58
74594;BME280;63097;51.872;4.460;2023-04-24T07:02:08;100615.38;;;8.64;92.90
74594;BME280;63097;51.872;4.460;2023-04-24T07:04:33;100611.47;;;8.76;93.21
74594;BME280;63097;51.872;4.460;2023-04-24T07:06:59;100624.56;;;8.81;92.56
74594;BME280;63097;51.872;4.460;2023-04-24T07:09:25;100626.19;;;8.77;91.08
74594;BME280;63097;51.872;4.460;2023-04-24T07:11:51;100636.50;;;8.81;91.69
74594;BME280;63097;51.872;4.460;2023-04-24T07:14:17;100636.75;;;8.80;91.47
74594;BME280;63097;51.872;4.460;2023-04-24T07:16:42;100647.53;;;8.65;92.00
74594;BME280;63097;51.872;4.460;2023-04-24T07:19:08;100653.91;;;8.77;90.84
74594;BME280;63097;51.872;4.460;2023-04-24T07:21:34;100659.28;;;8.83;89.85
74594;BME280;63097;51.872;4.460;2023-04-24T07:23:59;100668.94;;;8.81;89.42
74594;BME280;63097;51.872;4.460;2023-04-24T07:26:26;100662.22;;;8.77;87.73
74594;BME280;63097;51.872;4.460;2023-04-24T07:28:51;100660.06;;;8.67;90.52
74594;BME280;63097;51.872;4.460;2023-04-24T07:31:16;100670.63;;;8.82;88.38
74594;BME280;63097;51.872;4.460;2023-04-24T07:33:41;100674.38;;;8.87;87.92
74594;BME280;63097;51.872;4.460;2023-04-24T07:36:07;100682.72;;;8.76;87.71
74594;BME280;63097;51.872;4.460;2023-04-24T07:38:32;100693.69;;;8.82;87.24
74594;BME280;63097;51.872;4.460;2023-04-24T07:40:57;100693.88;;;8.92;86.35
74594;BME280;63097;51.872;4.460;2023-04-24T07:43:23;100701.13;;;8.93;84.56
74594;BME280;63097;51.872;4.460;2023-04-24T07:45:48;100711.88;;;8.90;82.09
74594;BME280;63097;51.872;4.460;2023-04-24T07:48:14;100721.78;;;8.74;84.58
74594;BME280;63097;51.872;4.460;2023-04-24T07:50:39;100726.63;;;8.56;86.80
74594;BME280;63097;51.872;4.460;2023-04-24T07:53:04;100724.59;;;8.28;86.96
74594;BME280;63097;51.872;4.460;2023-04-24T07:55:30;100727.47;;;8.22;85.46
74594;BME280;63097;51.872;4.460;2023-04-24T07:57:55;100742.56;;;8.26;86.21
74594;BME280;63097;51.872;4.460;2023-04-24T08:00:20;100723.28;;;8.31;85.53
74594;BME280;63097;51.872;4.460;2023-04-24T08:02:46;100746.66;;;8.35;85.56
74594;BME280;63097;51.872;4.460;2023-04-24T08:05:11;100733.28;;;8.43;85.72
74594;BME280;63097;51.872;4.460;2023-04-24T08:07:37;100755.31;;;8.50;87.79
74594;BME280;63097;51.872;4.460;2023-04-24T08:10:03;100751.81;;;8.54;85.97
74594;BME280;63097;51.872;4.460;2023-04-24T08:12:29;100763.03;;;8.59;85.99
74594;BME280;63097;51.872;4.460;2023-04-24T08:14:54;100759.78;;;8.62;84.99
74594;BME280;63097;51.872;4.460;2023-04-24T08:17:20;100756.38;;;8.83;84.60
74594;BME280;63097;51.872;4.460;2023-04-24T08:19:45;100773.97;;;8.89;83.26
74594;BME280;63097;51.872;4.460;2023-04-24T08:22:10;100767.78;;;9.10;82.93
74594;BME280;63097;51.872;4.460;2023-04-24T08:24:36;100780.81;;;9.09;82.09
74594;BME280;63097;51.872;4.460;2023-04-24T08:27:01;100770.19;;;9.06;80.07
74594;BME280;63097;51.872;4.460;2023-04-24T08:29:26;100787.59;;;8.90;80.26
74594;BME280;63097;51.872;4.460;2023-04-24T08:31:51;100789.41;;;8.85;82.46
74594;BME280;63097;51.872;4.460;2023-04-24T08:34:17;100798.44;;;8.92;79.82
74594;BME280;63097;51.872;4.460;2023-04-24T08:36:42;100817.75;;;8.87;80.40
74594;BME280;63097;51.872;4.460;2023-04-24T08:39:07;100821.72;;;8.79;80.90
74594;BME280;63097;51.872;4.460;2023-04-24T08:41:34;100814.75;;;8.77;78.53
74594;BME280;63097;51.872;4.460;2023-04-24T08:44:01;100819.09;;;8.84;77.08
74594;BME280;63097;51.872;4.460;2023-04-24T08:46:27;100822.84;;;8.78;80.08
74594;BME280;63097;51.872;4.460;2023-04-24T08:48:52;100825.59;;;8.90;76.98
74594;BME280;63097;51.872;4.460;2023-04-24T08:51:18;100829.81;;;8.81;78.29
74594;BME280;63097;51.872;4.460;2023-04-24T08:53:45;100829.69;;;8.76;80.61
74594;BME280;63097;51.872;4.460;2023-04-24T08:56:11;100830.91;;;8.80;78.94
74594;BME280;63097;51.872;4.460;2023-04-24T08:58:36;100840.78;;;8.99;79.82
74594;BME280;63097;51.872;4.460;2023-04-24T09:01:02;100841.25;;;9.19;78.99
74594;BME280;63097;51.872;4.460;2023-04-24T09:03:28;100842.56;;;9.28;78.10
74594;BME280;63097;51.872;4.460;2023-04-24T09:05:55;100838.31;;;9.37;76.33
74594;BME280;63097;51.872;4.460;2023-04-24T09:08:23;100839.19;;;9.26;77.15
74594;BME280;63097;51.872;4.460;2023-04-24T09:10:49;100842.31;;;9.30;77.00
74594;BME280;63097;51.872;4.460;2023-04-24T09:13:14;100864.91;;;9.10;77.20
74594;BME280;63097;51.872;4.460;2023-04-24T09:15:40;100848.75;;;8.72;79.56
74594;BME280;63097;51.872;4.460;2023-04-24T09:18:06;100860.44;;;8.74;79.86
74594;BME280;63097;51.872;4.460;2023-04-24T09:20:32;100865.50;;;8.77;78.16
74594;BME280;63097;51.872;4.460;2023-04-24T09:22:57;100865.38;;;8.95;78.29
74594;BME280;63097;51.872;4.460;2023-04-24T09:25:30;100868.16;;;9.19;77.73
74594;BME280;63097;51.872;4.460;2023-04-24T09:28:00;100861.56;;;9.48;76.42
74594;BME280;63097;51.872;4.460;2023-04-24T09:30:26;100872.50;;;9.66;74.96
74594;BME280;63097;51.872;4.460;2023-04-24T09:35:41;100883.38;;;10.07;74.15
74594;BME280;63097;51.872;4.460;2023-04-24T09:38:06;100873.72;;;9.70;74.49
74594;BME280;63097;51.872;4.460;2023-04-24T09:40:34;100888.66;;;9.69;74.13
74594;BME280;63097;51.872;4.460;2023-04-24T09:42:59;100886.06;;;9.51;73.48
74594;BME280;63097;51.872;4.460;2023-04-24T09:45:31;100901.78;;;9.45;72.42
74594;BME280;63097;51.872;4.460;2023-04-24T09:47:59;100891.94;;;9.66;72.96
74594;BME280;63097;51.872;4.460;2023-04-24T09:50:25;100894.03;;;9.59;72.16
74594;BME280;63097;51.872;4.460;2023-04-24T09:52:58;100910.63;;;9.82;71.82
74594;BME280;63097;51.872;4.460;2023-04-24T09:55:24;100901.28;;;9.99;70.64
74594;BME280;63097;51.872;4.460;2023-04-24T09:57:51;100906.03;;;10.27;71.28
74594;BME280;63097;51.872;4.460;2023-04-24T10:00:24;100912.53;;;10.33;68.67
74594;BME280;63097;51.872;4.460;2023-04-24T10:02:54;100930.19;;;10.55;69.85
74594;BME280;63097;51.872;4.460;2023-04-24T10:05:23;100909.09;;;10.75;68.63
74594;BME280;63097;51.872;4.460;2023-04-24T10:07:48;100918.13;;;10.99;67.81
74594;BME280;63097;51.872;4.460;2023-04-24T10:10:14;100924.13;;;10.74;70.86
74594;BME280;63097;51.872;4.460;2023-04-24T10:12:40;100933.47;;;11.01;67.63
74594;BME280;63097;51.872;4.460;2023-04-24T10:15:06;100917.53;;;10.19;71.20
74594;BME280;63097;51.872;4.460;2023-04-24T10:17:32;100941.00;;;10.00;72.24
74594;BME280;63097;51.872;4.460;2023-04-24T10:19:58;100930.75;;;9.61;74.46
74594;BME280;63097;51.872;4.460;2023-04-24T10:22:25;100934.84;;;9.58;75.12
74594;BME280;63097;51.872;4.460;2023-04-24T10:24:52;100950.22;;;9.26;75.95
74594;BME280;63097;51.872;4.460;2023-04-24T10:27:17;100944.41;;;9.04;77.91
74594;BME280;63097;51.872;4.460;2023-04-24T10:29:47;100945.00;;;8.95;77.40
74594;BME280;63097;51.872;4.460;2023-04-24T10:32:12;100955.50;;;8.93;77.16
74594;BME280;63097;51.872;4.460;2023-04-24T10:34:37;100942.09;;;9.01;79.49
74594;BME280;63097;51.872;4.460;2023-04-24T10:37:03;100950.06;;;9.21;78.81
74594;BME280;63097;51.872;4.460;2023-04-24T10:39:29;100945.91;;;9.81;76.36
74594;BME280;63097;51.872;4.460;2023-04-24T10:41:55;100945.84;;;10.16;76.19
74594;BME280;63097;51.872;4.460;2023-04-24T10:44:22;100952.81;;;10.47;74.73
74594;BME280;63097;51.872;4.460;2023-04-24T10:46:53;100955.19;;;10.71;73.87
74594;BME280;63097;51.872;4.460;2023-04-24T10:49:30;100956.34;;;10.87;73.27
74594;BME280;63097;51.872;4.460;2023-04-24T10:52:00;100954.63;;;11.02;69.86
74594;BME280;63097;51.872;4.460;2023-04-24T10:59:43;100963.06;;;11.41;63.69
74594;BME280;63097;51.872;4.460;2023-04-24T11:02:09;100967.50;;;12.18;59.94
74594;BME280;63097;51.872;4.460;2023-04-24T11:04:34;100982.34;;;12.24;61.96
74594;BME280;63097;51.872;4.460;2023-04-24T11:07:00;100971.63;;;11.56;64.44
74594;BME280;63097;51.872;4.460;2023-04-24T11:09:30;100985.28;;;10.58;67.06
74594;BME280;63097;51.872;4.460;2023-04-24T11:12:14;100999.50;;;10.05;72.62
74594;BME280;63097;51.872;4.460;2023-04-24T11:17:36;101016.09;;;9.31;77.99
74594;BME280;63097;51.872;4.460;2023-04-24T11:20:04;101003.31;;;9.30;77.18
74594;BME280;63097;51.872;4.460;2023-04-24T11:22:32;101015.59;;;9.45;78.60
74594;BME280;63097;51.872;4.460;2023-04-24T11:24:59;101015.38;;;9.81;77.00
74594;BME280;63097;51.872;4.460;2023-04-24T11:27:34;101021.38;;;10.01;74.71
74594;BME280;63097;51.872;4.460;2023-04-24T11:30:03;101034.06;;;9.86;73.49
74594;BME280;63097;51.872;4.460;2023-04-24T11:32:36;101034.16;;;10.02;71.94
74594;BME280;63097;51.872;4.460;2023-04-24T11:35:15;101043.03;;;10.39;71.20
74594;BME280;63097;51.872;4.460;2023-04-24T11:37:42;101026.50;;;10.61;67.47
74594;BME280;63097;51.872;4.460;2023-04-24T11:40:12;101037.19;;;10.80;67.12
74594;BME280;63097;51.872;4.460;2023-04-24T11:42:46;101045.88;;;10.56;65.87
74594;BME280;63097;51.872;4.460;2023-04-24T11:45:17;101048.31;;;10.52;65.91
74594;BME280;63097;51.872;4.460;2023-04-24T11:47:44;101050.41;;;10.73;69.66
74594;BME280;63097;51.872;4.460;2023-04-24T11:50:12;101044.06;;;10.61;71.00
74594;BME280;63097;51.872;4.460;2023-04-24T11:52:39;101051.00;;;10.75;72.46
74594;BME280;63097;51.872;4.460;2023-04-24T11:55:28;101056.97;;;11.12;71.09
74594;BME280;63097;51.872;4.460;2023-04-24T11:57:54;101051.69;;;12.15;68.63
74594;BME280;63097;51.872;4.460;2023-04-24T12:00:22;101058.69;;;12.87;67.56
74594;BME280;63097;51.872;4.460;2023-04-24T12:02:49;101063.06;;;12.78;62.33
74594;BME280;63097;51.872;4.460;2023-04-24T12:05:21;101059.63;;;12.45;65.84
74594;BME280;63097;51.872;4.460;2023-04-24T12:07:46;101051.94;;;11.75;66.55
74594;BME280;63097;51.872;4.460;2023-04-24T12:10:12;101071.44;;;11.42;66.95
74594;BME280;63097;51.872;4.460;2023-04-24T12:12:37;101079.13;;;11.35;70.73
74594;BME280;63097;51.872;4.460;2023-04-24T12:15:07;101069.22;;;11.11;69.89
74594;BME280;63097;51.872;4.460;2023-04-24T12:17:33;101085.00;;;11.05;74.23
74594;BME280;63097;51.872;4.460;2023-04-24T12:20:01;101083.41;;;11.09;73.22
74594;BME280;63097;51.872;4.460;2023-04-24T12:22:26;101085.28;;;10.92;72.20
74594;BME280;63097;51.872;4.460;2023-04-24T12:25:04;101093.41;;;11.55;69.89
74594;BME280;63097;51.872;4.460;2023-04-24T12:27:33;101093.72;;;11.59;69.05
74594;BME280;63097;51.872;4.460;2023-04-24T12:30:01;101087.41;;;11.80;70.09
74594;BME280;63097;51.872;4.460;2023-04-24T12:32:26;101086.19;;;11.92;68.29
74594;BME280;63097;51.872;4.460;2023-04-24T12:34:53;101097.72;;;12.56;65.75
74594;BME280;63097;51.872;4.460;2023-04-24T12:37:19;101111.28;;;12.95;66.81
74594;BME280;63097;51.872;4.460;2023-04-24T12:42:30;101084.50;;;12.51;64.45
74594;BME280;63097;51.872;4.460;2023-04-24T12:45:06;101090.53;;;11.67;66.25
74594;BME280;63097;51.872;4.460;2023-04-24T12:47:32;101091.91;;;11.20;66.79
74594;BME280;63097;51.872;4.460;2023-04-24T12:49:59;101096.69;;;10.91;65.94
74594;BME280;63097;51.872;4.460;2023-04-24T12:52:26;101098.31;;;11.03;66.58
74594;BME280;63097;51.872;4.460;2023-04-24T12:54:56;101087.63;;;10.56;66.92
74594;BME280;63097;51.872;4.460;2023-04-24T12:57:23;101108.56;;;10.47;67.66
74594;BME280;63097;51.872;4.460;2023-04-24T12:59:48;101101.28;;;10.46;67.91
74594;BME280;63097;51.872;4.460;2023-04-24T13:02:14;101107.06;;;10.67;69.32